Time;durP1;ratioP1;P1;durP2;ratioP2;P2;SDS_P1;SDS_P2;PMS_P1;PMS_P2;Temp;Humidity;BMP_temperature;BMP_pressure;BME280_temperature;BME280_humidity;BME280_pressure;Samples;Min_cycle;Max_cycle;Signal;HPM_P1;HPM_P2
2023/06/23 00:00:02;;;;;;;1.35;1.00;;;25.40;51.50;;;;;;5032924;28;20036;-81
2023/06/23 00:02:27;;;;;;;1.63;1.08;;;25.40;51.50;;;;;;5032668;28;20037;-80
2023/06/23 00:04:54;;;;;;;1.40;1.30;;;25.40;51.50;;;;;;5032789;28;20114;-81
2023/06/23 00:07:19;;;;;;;1.05;0.93;;;25.40;51.50;;;;;;5032826;28;20028;-81
2023/06/23 00:09:46;;;;;;;1.77;1.13;;;25.30;51.40;;;;;;5032702;28;20026;-81
2023/06/23 00:12:11;;;;;;;1.10;0.90;;;25.40;51.50;;;;;;5032462;28;20087;-81
2023/06/23 00:14:37;;;;;;;1.73;1.30;;;25.40;51.50;;;;;;5032567;28;20029;-81
2023/06/23 00:17:03;;;;;;;0.85;0.82;;;25.30;51.40;;;;;;5032736;28;20025;-78
2023/06/23 00:19:31;;;;;;;1.65;1.10;;;25.30;51.40;;;;;;5032486;28;20026;-80
2023/06/23 00:21:57;;;;;;;1.73;1.40;;;25.30;51.40;;;;;;5032369;28;20059;-80
2023/06/23 00:24:23;;;;;;;1.40;0.98;;;25.30;51.30;;;;;;5032424;28;20033;-80
2023/06/23 00:26:50;;;;;;;3.10;1.02;;;25.30;51.40;;;;;;5031676;28;20053;-80
2023/06/23 00:29:16;;;;;;;1.10;0.98;;;25.30;52.10;;;;;;5032692;28;20616;-80
2023/06/23 00:31:43;;;;;;;1.25;1.10;;;25.30;51.30;;;;;;5032333;28;20032;-80
2023/06/23 00:34:08;;;;;;;1.25;1.00;;;25.20;51.40;;;;;;5032302;28;20072;-80
2023/06/23 00:36:34;;;;;;;2.05;1.00;;;25.30;51.40;;;;;;5032358;28;20030;-80
2023/06/23 00:39:02;;;;;;;1.33;0.90;;;25.20;51.20;;;;;;5032320;28;20035;-80
2023/06/23 00:41:27;;;;;;;1.45;1.00;;;25.20;51.40;;;;;;5032549;28;20096;-81
2023/06/23 00:43:58;;;;;;;1.00;0.90;;;25.20;51.30;;;;;;5032181;28;20021;-80
2023/06/23 00:46:25;;;;;;;2.15;0.88;;;25.20;51.30;;;;;;5032295;28;20476;-80
2023/06/23 00:48:51;;;;;;;1.10;1.00;;;25.20;51.30;;;;;;5032168;28;20112;-80
2023/06/23 00:51:17;;;;;;;1.10;1.00;;;25.20;51.30;;;;;;5032146;28;20026;-80
2023/06/23 00:53:48;;;;;;;1.30;0.98;;;25.10;51.20;;;;;;5032106;28;20044;-80
2023/06/23 00:56:14;;;;;;;1.30;1.00;;;25.20;51.90;;;;;;5032071;28;20061;-80
2023/06/23 00:58:41;;;;;;;1.00;0.90;;;25.10;51.20;;;;;;5032811;28;20026;-79
2023/06/23 01:01:10;;;;;;;1.10;1.00;;;25.10;51.20;;;;;;5032140;28;20014;-79
2023/06/23 01:03:37;;;;;;;0.90;0.80;;;25.10;51.20;;;;;;5031887;28;20052;-80
2023/06/23 01:06:16;;;;;;;1.52;1.08;;;25.10;51.10;;;;;;5031914;28;20103;-79
2023/06/23 01:09:00;;;;;;;1.10;1.08;;;25.10;51.30;;;;;;5032243;28;20033;-80
2023/06/23 01:11:35;;;;;;;0.90;0.90;;;25.10;51.20;;;;;;5032089;28;20049;-80
2023/06/23 01:14:13;;;;;;;1.10;1.00;;;25.00;51.10;;;;;;5032150;28;20060;-80
2023/06/23 01:16:51;;;;;;;1.45;1.10;;;25.10;51.30;;;;;;5032219;28;20498;-80
2023/06/23 01:19:38;;;;;;;1.52;0.90;;;25.00;51.90;;;;;;5032147;28;20025;-80
2023/06/23 01:22:12;;;;;;;1.00;0.90;;;25.10;51.20;;;;;;5031837;28;20487;-80
2023/06/23 01:24:56;;;;;;;1.10;1.00;;;25.00;51.20;;;;;;5031801;28;20055;-80
2023/06/23 01:27:25;;;;;;;1.60;1.20;;;25.00;51.20;;;;;;5031783;28;20029;-79
2023/06/23 01:29:53;;;;;;;1.27;1.17;;;25.00;51.30;;;;;;5032016;28;20037;-80
2023/06/23 01:32:26;;;;;;;1.10;1.00;;;25.00;51.20;;;;;;5031735;28;20072;-80
2023/06/23 01:34:56;;;;;;;1.38;1.17;;;25.00;51.20;;;;;;5032060;28;20045;-80
2023/06/23 01:37:34;;;;;;;1.00;1.00;;;25.00;51.20;;;;;;5031621;28;20109;-80
2023/06/23 01:40:09;;;;;;;1.20;0.73;;;25.00;51.20;;;;;;5035330;28;20017;-80
2023/06/23 01:42:41;;;;;;;1.25;1.15;;;25.00;51.20;;;;;;5035773;28;20025;-79
2023/06/23 01:45:09;;;;;;;1.48;1.10;;;24.90;51.10;;;;;;5035580;28;20105;-80
2023/06/23 01:47:38;;;;;;;1.67;1.13;;;24.90;51.20;;;;;;5035591;28;20032;-80
2023/06/23 01:50:06;;;;;;;1.13;0.95;;;24.90;51.20;;;;;;5035423;28;20018;-80
2023/06/23 01:52:34;;;;;;;1.33;1.00;;;24.90;51.20;;;;;;5035408;28;20341;-80
2023/06/23 01:55:01;;;;;;;1.20;1.08;;;24.90;51.10;;;;;;5035165;28;20025;-77
2023/06/23 01:57:29;;;;;;;1.20;1.10;;;24.90;51.20;;;;;;5035132;28;20021;-77
2023/06/23 01:59:56;;;;;;;1.42;1.08;;;24.90;51.20;;;;;;5035160;28;20021;-77
2023/06/23 02:02:24;;;;;;;1.70;0.90;;;24.80;51.20;;;;;;5034663;28;20045;-77
2023/06/23 02:04:50;;;;;;;1.95;1.00;;;24.90;51.20;;;;;;5034878;28;20464;-76
2023/06/23 02:07:19;;;;;;;0.98;0.90;;;24.90;51.20;;;;;;5034798;28;20325;-77
2023/06/23 02:09:46;;;;;;;1.15;1.05;;;24.80;51.10;;;;;;5034747;28;20022;-77
2023/06/23 02:12:13;;;;;;;1.20;0.88;;;24.80;51.10;;;;;;5034996;28;20026;-77
2023/06/23 02:14:40;;;;;;;0.98;0.95;;;24.90;51.20;;;;;;5034661;28;20017;-77
2023/06/23 02:17:10;;;;;;;1.02;0.93;;;24.80;51.10;;;;;;5034628;28;20488;-77
2023/06/23 02:19:42;;;;;;;1.40;0.90;;;24.80;51.10;;;;;;5034596;28;20036;-77
2023/06/23 02:22:13;;;;;;;1.00;0.90;;;24.80;51.10;;;;;;5034773;28;20037;-77
2023/06/23 02:24:40;;;;;;;1.13;1.02;;;24.70;51.10;;;;;;5034721;28;20104;-77
2023/06/23 02:27:07;;;;;;;1.15;1.05;;;24.70;51.20;;;;;;5017137;28;20038;-77
2023/06/23 02:29:38;;;;;;;1.38;1.05;;;24.70;51.10;;;;;;5034713;28;20541;-77
2023/06/23 02:32:05;;;;;;;1.13;0.95;;;24.70;51.10;;;;;;5034623;28;20033;-76
2023/06/23 02:34:30;;;;;;;2.53;0.90;;;24.70;51.20;;;;;;5034399;28;20044;-76
2023/06/23 02:37:02;;;;;;;1.30;1.20;;;24.70;51.20;;;;;;5034485;28;20018;-76
2023/06/23 02:39:33;;;;;;;0.98;0.88;;;24.70;51.10;;;;;;5034692;28;20025;-76
2023/06/23 02:42:00;;;;;;;1.33;1.23;;;24.70;51.20;;;;;;5034521;28;20021;-76
2023/06/23 02:44:39;;;;;;;1.20;1.08;;;24.70;51.20;;;;;;5034379;28;20108;-76
2023/06/23 02:47:10;;;;;;;1.50;1.20;;;24.70;51.20;;;;;;5034496;28;20029;-76
2023/06/23 02:49:37;;;;;;;1.38;1.20;;;24.70;51.10;;;;;;5033740;28;20104;-79
2023/06/23 02:52:05;;;;;;;1.17;0.93;;;24.60;51.00;;;;;;5034100;28;20089;-80
2023/06/23 02:54:35;;;;;;;1.70;1.02;;;24.70;51.20;;;;;;5034211;28;20099;-79
2023/06/23 02:57:02;;;;;;;;;;;24.60;51.20;;;;;;5034648;28;20361;-80
2023/06/23 02:59:30;;;;;;;0.82;0.82;;;24.60;51.00;;;;;;5034072;28;19912;-79
2023/06/23 03:01:58;;;;;;;0.90;0.85;;;24.60;51.70;;;;;;5033784;28;20038;-80
2023/06/23 03:04:24;;;;;;;1.10;0.98;;;24.60;51.80;;;;;;5033998;28;20379;-79
2023/06/23 03:06:51;;;;;;;1.17;1.08;;;24.60;51.00;;;;;;5016128;28;20104;-80
2023/06/23 03:09:17;;;;;;;1.45;1.00;;;24.60;51.20;;;;;;5033865;28;20368;-80
2023/06/23 03:11:42;;;;;;;1.98;0.98;;;24.60;51.80;;;;;;5033780;28;20032;-80
2023/06/23 03:14:08;;;;;;;1.10;1.00;;;24.50;51.10;;;;;;5033725;28;20442;-80
2023/06/23 03:17:02;;;;;;;1.75;1.15;;;24.50;51.00;;;;;;5033719;28;20105;-80
2023/06/23 03:19:46;;;;;;;1.50;1.10;;;24.50;51.10;;;;;;5033662;28;20075;-80
2023/06/23 03:22:22;;;;;;;1.15;0.88;;;24.50;51.30;;;;;;5033582;28;20144;-80
2023/06/23 03:24:53;;;;;;;1.00;0.90;;;24.50;51.10;;;;;;5033433;28;20464;-79
2023/06/23 03:27:22;;;;;;;1.20;1.10;;;24.50;51.10;;;;;;5033434;28;20021;-76
2023/06/23 03:29:54;;;;;;;1.23;1.00;;;24.50;51.20;;;;;;5033232;28;20021;-76
2023/06/23 03:32:30;;;;;;;1.13;1.02;;;24.50;51.20;;;;;;5033123;28;20030;-76
2023/06/23 03:35:06;;;;;;;1.25;1.15;;;24.50;51.10;;;;;;5033169;28;20444;-76
2023/06/23 03:37:38;;;;;;;1.10;1.00;;;24.50;51.20;;;;;;5033122;28;20053;-76
2023/06/23 03:40:08;;;;;;;1.20;1.10;;;24.40;51.20;;;;;;5033534;28;20034;-76
2023/06/23 03:42:39;;;;;;;1.30;1.20;;;24.50;51.20;;;;;;5033021;28;20032;-76
2023/06/23 03:45:08;;;;;;;1.30;1.20;;;24.50;51.00;;;;;;5033114;28;20630;-79
2023/06/23 03:47:35;;;;;;;1.27;0.88;;;24.40;50.90;;;;;;5032926;28;20034;-79
2023/06/23 03:50:10;;;;;;;0.95;0.95;;;24.40;51.20;;;;;;5033074;28;20025;-78
2023/06/23 03:52:38;;;;;;;1.02;0.80;;;24.40;51.20;;;;;;5032874;28;20554;-80
2023/06/23 03:55:06;;;;;;;1.40;1.30;;;24.40;51.00;;;;;;5033138;28;20101;-80
2023/06/23 03:57:34;;;;;;;1.35;1.25;;;24.40;51.30;;;;;;5032733;28;20357;-79
2023/06/23 04:00:04;;;;;;;1.45;1.35;;;24.40;51.20;;;;;;5032976;28;20444;-79
2023/06/23 04:02:32;;;;;;;1.48;1.38;;;24.40;51.30;;;;;;5031622;28;20042;-79
2023/06/23 04:05:00;;;;;;;1.48;1.38;;;24.40;51.40;;;;;;5032937;28;20430;-79
2023/06/23 04:07:28;;;;;;;1.67;1.58;;;24.40;51.40;;;;;;5032722;28;20044;-79
2023/06/23 04:09:56;;;;;;;2.47;2.22;;;24.40;51.50;;;;;;5032862;28;20128;-80
2023/06/23 04:12:23;;;;;;;2.95;2.53;;;24.40;52.10;;;;;;5032557;28;20041;-80
2023/06/23 04:14:52;;;;;;;2.90;2.70;;;24.40;51.50;;;;;;5032651;28;20101;-80
2023/06/23 04:17:22;;;;;;;2.95;2.75;;;24.40;51.50;;;;;;5032802;28;20383;-80
2023/06/23 04:19:52;;;;;;;4.30;4.00;;;24.30;51.30;;;;;;5032419;28;20026;-80
2023/06/23 04:22:19;;;;;;;;;;;24.30;51.60;;;;;;5032980;28;20083;-80
2023/06/23 04:24:47;;;;;;;5.20;4.90;;;24.40;51.70;;;;;;5032375;28;19905;-79
2023/06/23 04:27:16;;;;;;;6.45;6.05;;;24.30;51.50;;;;;;5032298;28;20105;-79
2023/06/23 04:29:45;;;;;;;7.03;6.50;;;24.30;51.70;;;;;;5032252;28;20064;-80
2023/06/23 04:32:12;;;;;;;7.27;6.77;;;24.30;51.50;;;;;;5032256;28;20076;-80
2023/06/23 04:34:39;;;;;;;7.78;7.18;;;24.30;51.40;;;;;;5032496;28;20436;-80
2023/06/23 04:37:26;;;;;;;9.02;8.32;;;24.20;51.30;;;;;;5032422;28;20022;-80
2023/06/23 04:40:07;;;;;;;10.23;9.43;;;24.20;51.60;;;;;;5032046;28;20022;-80
2023/06/23 04:42:44;;;;;;;10.68;9.88;;;24.20;51.80;;;;;;5032370;28;20099;-80
2023/06/23 04:45:16;;;;;;;11.55;10.48;;;24.30;51.30;;;;;;5031883;28;20029;-80
2023/06/23 04:47:45;;;;;;;12.20;11.30;;;24.20;51.80;;;;;;5014304;28;20498;-80
2023/06/23 04:50:14;;;;;;;11.95;11.05;;;24.20;52.00;;;;;;5031723;28;20036;-79
2023/06/23 04:52:46;;;;;;;11.30;10.40;;;24.30;52.10;;;;;;5032073;28;20030;-80
2023/06/23 04:55:15;;;;;;;11.63;10.52;;;24.20;51.60;;;;;;5031976;28;20017;-80
2023/06/23 04:57:43;;;;;;;11.27;10.40;;;24.20;51.90;;;;;;5031774;28;20017;-80
2023/06/23 05:00:15;;;;;;;11.80;10.80;;;24.20;51.70;;;;;;5031908;28;20384;-79
2023/06/23 05:02:44;;;;;;;11.15;10.20;;;24.20;52.00;;;;;;5031587;28;20508;-79
2023/06/23 05:05:16;;;;;;;10.60;9.70;;;24.20;51.90;;;;;;5031915;28;20021;-80
2023/06/23 05:07:43;;;;;;;10.20;9.30;;;24.20;51.80;;;;;;5032047;28;20542;-80
2023/06/23 05:10:11;;;;;;;10.27;9.48;;;24.20;51.80;;;;;;5031873;28;20025;-79
2023/06/23 05:12:40;;;;;;;10.60;9.70;;;24.20;51.70;;;;;;5031665;28;20108;-79
2023/06/23 05:15:07;;;;;;;9.75;8.95;;;24.20;51.90;;;;;;5014529;28;20065;-79
2023/06/23 05:17:37;;;;;;;9.88;8.98;;;24.20;51.60;;;;;;5031861;28;20109;-80
2023/06/23 05:20:07;;;;;;;10.05;9.25;;;24.20;51.80;;;;;;5031517;28;20033;-81
2023/06/23 05:22:36;;;;;;;9.52;8.73;;;24.20;51.80;;;;;;5031631;28;20021;-81
2023/06/23 05:25:04;;;;;;;8.90;8.18;;;24.20;51.90;;;;;;5031802;28;20017;-79
2023/06/23 05:27:32;;;;;;;8.38;7.68;;;23.60;51.50;;;;;;5031654;28;20033;-78
2023/06/23 05:30:00;;;;;;;7.53;6.93;;;24.20;52.50;;;;;;5031809;28;20022;-79
2023/06/23 05:32:31;;;;;;;8.20;7.53;;;24.20;51.70;;;;;;5031453;28;20488;-80
2023/06/23 05:35:02;;;;;;;7.78;7.07;;;24.10;51.60;;;;;;5031845;28;20029;-79
2023/06/23 05:37:31;;;;;;;6.00;5.53;;;24.10;52.00;;;;;;5031614;28;20142;-79
2023/06/23 05:40:00;;;;;;;6.45;5.95;;;24.20;52.00;;;;;;5031636;28;20095;-79
2023/06/23 05:42:29;;;;;;;6.20;5.70;;;24.20;52.00;;;;;;5031278;28;20026;-79
2023/06/23 05:44:55;;;;;;;5.88;5.47;;;24.20;52.00;;;;;;5031311;28;20476;-76
2023/06/23 05:47:25;;;;;;;5.50;5.10;;;24.20;51.70;;;;;;5013561;28;20036;-79
2023/06/23 05:49:55;;;;;;;5.35;4.95;;;24.20;52.10;;;;;;5031580;28;20032;-77
2023/06/23 05:52:22;;;;;;;5.95;5.43;;;24.20;52.10;;;;;;5031259;28;20108;-78
2023/06/23 05:54:53;;;;;;;4.90;4.50;;;24.20;52.00;;;;;;5031267;28;20523;-78
2023/06/23 05:57:27;;;;;;;4.47;4.07;;;24.20;52.00;;;;;;5031101;28;20064;-78
2023/06/23 06:00:05;;;;;;;4.60;4.20;;;24.20;52.10;;;;;;5031407;28;20030;-78
2023/06/23 06:02:33;;;;;;;4.60;3.78;;;24.20;52.10;;;;;;5030910;28;20052;-82
2023/06/23 06:05:01;;;;;;;4.47;4.07;;;24.20;52.00;;;;;;5031418;28;20040;-82
2023/06/23 06:07:29;;;;;;;5.22;3.60;;;24.20;52.00;;;;;;5031534;28;20061;-82
2023/06/23 06:09:58;;;;;;;4.68;3.80;;;24.20;52.20;;;;;;5031856;28;20399;-83
2023/06/23 06:12:26;;;;;;;3.97;3.22;;;24.20;52.30;;;;;;5031238;28;20385;-82
2023/06/23 06:14:52;;;;;;;4.78;3.33;;;24.20;52.40;;;;;;5031419;28;20397;-81
2023/06/23 06:17:19;;;;;;;4.85;3.63;;;24.20;52.50;;;;;;5033317;28;20439;-81
2023/06/23 06:19:45;;;;;;;2.92;2.72;;;24.20;52.70;;;;;;5031337;28;20030;-81
2023/06/23 06:22:13;;;;;;;4.63;3.50;;;24.20;52.90;;;;;;5031136;28;20464;-78
2023/06/23 06:24:40;;;;;;;3.30;2.83;;;24.20;52.90;;;;;;5032562;28;20474;-78
2023/06/23 06:27:07;;;;;;;4.70;3.00;;;24.20;53.10;;;;;;5034663;28;20021;-78
2023/06/23 06:29:36;;;;;;;3.40;3.08;;;24.20;53.10;;;;;;5035063;28;20033;-80
2023/06/23 06:32:05;;;;;;;3.53;3.22;;;24.20;53.10;;;;;;5034902;28;20376;-77
2023/06/23 06:34:33;;;;;;;3.50;2.90;;;24.20;53.10;;;;;;5034690;28;20022;-78
2023/06/23 06:37:01;;;;;;;4.53;3.40;;;24.20;53.30;;;;;;5034476;28;20096;-84
2023/06/23 06:39:29;;;;;;;3.10;2.88;;;24.30;53.40;;;;;;5034523;28;20506;-81
2023/06/23 06:41:59;;;;;;;5.10;3.63;;;24.20;53.40;;;;;;5035204;28;20022;-83
2023/06/23 06:44:25;;;;;;;4.67;3.20;;;24.30;53.40;;;;;;5035186;28;20482;-85
2023/06/23 06:46:52;;;;;;;5.75;3.20;;;24.30;52.90;;;;;;5017817;28;20032;-92
2023/06/23 06:49:21;;;;;;;3.70;3.05;;;24.20;53.40;;;;;;5034867;28;20025;-89
2023/06/23 06:51:49;;;;;;;3.55;2.95;;;24.30;53.50;;;;;;5034687;28;20467;-83
2023/06/23 06:54:16;;;;;;;4.28;3.10;;;24.30;53.50;;;;;;5034930;28;20372;-85
2023/06/23 06:56:43;;;;;;;3.83;2.75;;;24.20;53.50;;;;;;5034983;28;20097;-87
2023/06/23 06:59:09;;;;;;;2.80;2.38;;;24.20;53.20;;;;;;5035973;28;20125;-92
2023/06/23 07:01:37;;;;;;;3.10;2.80;;;24.30;53.50;;;;;;5035055;28;20021;-86
2023/06/23 07:04:04;;;;;;;2.67;2.22;;;24.30;53.50;;;;;;5034187;28;20430;-85
2023/06/23 07:06:31;;;;;;;3.38;2.50;;;24.30;53.50;;;;;;5033819;28;20495;-86
2023/06/23 07:08:57;;;;;;;3.05;2.70;;;24.30;53.40;;;;;;5033905;28;20018;-86
2023/06/23 07:11:23;;;;;;;3.95;2.72;;;24.30;53.60;;;;;;5016152;28;20036;-86
2023/06/23 07:13:48;;;;;;;2.75;2.55;;;24.30;53.50;;;;;;5033847;28;20068;-86
2023/06/23 07:16:14;;;;;;;3.00;2.25;;;24.40;53.40;;;;;;5033811;28;20057;-87
2023/06/23 07:18:41;;;;;;;2.90;2.60;;;24.40;53.30;;;;;;5033873;28;20040;-87
2023/06/23 07:21:09;;;;;;;4.90;2.85;;;24.40;53.50;;;;;;5034278;28;20071;-78
2023/06/23 07:23:35;;;;;;;4.30;2.72;;;24.40;53.80;;;;;;5035009;28;20109;-84
2023/06/23 07:26:01;;;;;;;2.80;2.47;;;24.40;53.60;;;;;;5034038;28;20365;-84
2023/06/23 07:28:27;;;;;;;2.53;2.13;;;24.40;53.60;;;;;;5033782;28;20033;-86
2023/06/23 07:30:53;;;;;;;2.63;2.28;;;24.40;54.10;;;;;;5034042;28;20076;-77
2023/06/23 07:33:19;;;;;;;3.47;2.60;;;24.40;53.70;;;;;;5033373;28;20033;-79
2023/06/23 07:35:45;;;;;;;2.70;2.50;;;24.40;53.80;;;;;;5033140;28;20029;-78
2023/06/23 07:38:11;;;;;;;2.58;2.38;;;24.40;53.70;;;;;;5033422;28;20104;-78
2023/06/23 07:40:37;;;;;;;2.83;2.53;;;24.40;53.80;;;;;;5033303;28;20079;-78
2023/06/23 07:43:03;;;;;;;2.90;2.60;;;24.40;53.60;;;;;;5015907;28;20045;-79
2023/06/23 07:45:29;;;;;;;2.28;2.08;;;24.40;53.80;;;;;;5033340;28;20427;-78
2023/06/23 07:47:55;;;;;;;3.58;2.50;;;24.40;53.70;;;;;;5032948;28;20029;-76
2023/06/23 07:50:20;;;;;;;3.33;2.42;;;24.40;53.80;;;;;;5033002;28;20170;-78
2023/06/23 07:52:53;;;;;;;2.88;2.55;;;24.50;54.10;;;;;;5015021;28;20087;-78
2023/06/23 07:55:22;;;;;;;2.75;2.35;;;24.50;54.00;;;;;;5015487;28;20045;-76
2023/06/23 07:57:48;;;;;;;4.05;2.50;;;24.50;54.00;;;;;;5015129;28;20034;-78
2023/06/23 08:00:15;;;;;;;3.70;2.13;;;24.50;54.20;;;;;;5015068;28;20033;-76
2023/06/23 08:02:41;;;;;;;3.35;2.75;;;24.50;54.10;;;;;;5014627;28;20124;-78
2023/06/23 08:05:08;;;;;;;2.95;2.58;;;24.50;54.30;;;;;;5031341;28;20112;-78
2023/06/23 08:07:35;;;;;;;3.65;2.42;;;24.50;54.20;;;;;;5015402;28;20362;-79
2023/06/23 08:10:01;;;;;;;2.53;2.30;;;24.50;54.30;;;;;;5015018;28;20029;-79
2023/06/23 08:12:26;;;;;;;3.85;2.20;;;24.50;54.30;;;;;;5014830;28;20056;-85
2023/06/23 08:14:53;;;;;;;5.22;2.50;;;24.60;54.30;;;;;;5015288;28;20095;-87
2023/06/23 08:17:19;;;;;;;3.08;2.30;;;24.60;54.30;;;;;;5019896;28;20045;-86
2023/06/23 08:19:45;;;;;;;7.22;2.33;;;24.60;54.30;;;;;;5022896;28;20400;-83
2023/06/23 08:22:11;;;;;;;2.42;2.05;;;24.70;54.20;;;;;;5015460;28;20037;-79
2023/06/23 08:24:37;;;;;;;2.65;2.33;;;24.70;54.40;;;;;;5014823;28;20100;-80
2023/06/23 08:27:04;;;;;;;2.75;2.10;;;24.80;54.20;;;;;;5032362;28;20021;-78
2023/06/23 08:29:30;;;;;;;2.90;1.98;;;24.80;54.30;;;;;;5032154;28;20078;-81
2023/06/23 08:31:56;;;;;;;2.97;2.10;;;24.90;54.30;;;;;;5032359;28;20029;-79
2023/06/23 08:34:22;;;;;;;3.00;1.92;;;24.90;55.00;;;;;;5031984;28;20104;-77
2023/06/23 08:36:47;;;;;;;2.20;2.10;;;24.90;54.50;;;;;;5032174;28;20036;-79
2023/06/23 08:39:13;;;;;;;2.90;1.92;;;24.90;54.60;;;;;;5032217;28;20028;-78
2023/06/23 08:41:43;;;;;;;2.45;2.20;;;24.90;54.70;;;;;;5032115;28;20028;-78
2023/06/23 08:44:13;;;;;;;2.40;2.20;;;24.90;55.00;;;;;;5031909;28;20053;-78
2023/06/23 08:46:40;;;;;;;;;;;25.00;54.70;;;;;;5032310;28;20022;-77
2023/06/23 08:49:08;;;;;;;3.65;2.40;;;25.00;55.10;;;;;;5031831;28;19911;-85
2023/06/23 08:51:34;;;;;;;2.40;2.20;;;25.10;55.20;;;;;;5032538;28;20468;-92
2023/06/23 08:54:01;;;;;;;2.10;2.00;;;25.10;55.00;;;;;;5032946;28;20125;-89
2023/06/23 08:56:27;;;;;;;2.63;2.13;;;25.10;55.10;;;;;;5032708;28;20087;-86
2023/06/23 08:58:53;;;;;;;2.10;1.85;;;25.10;55.30;;;;;;5031579;28;20060;-79
2023/06/23 09:01:19;;;;;;;2.38;2.00;;;25.30;72.00;;;;;;5031422;28;20075;-81
2023/06/23 09:03:45;;;;;;;3.38;2.30;;;25.20;55.20;;;;;;5031331;28;20048;-79
2023/06/23 09:06:12;;;;;;;2.58;2.30;;;24.80;55.20;;;;;;5031770;28;20328;-79
2023/06/23 09:08:38;;;;;;;1.90;1.80;;;25.30;55.60;;;;;;5031765;28;20025;-79
2023/06/23 09:11:04;;;;;;;2.00;1.90;;;25.30;55.30;;;;;;5031355;28;20075;-78
2023/06/23 09:13:35;;;;;;;2.50;2.00;;;25.30;55.40;;;;;;5031496;28;20120;-78
2023/06/23 09:16:02;;;;;;;2.78;2.13;;;25.40;55.90;;;;;;5031422;28;20037;-78
2023/06/23 09:18:32;;;;;;;2.00;1.90;;;25.40;55.60;;;;;;5031413;28;20053;-78
2023/06/23 09:20:59;;;;;;;;;;;25.40;55.80;;;;;;5032264;28;20021;-78
2023/06/23 09:23:26;;;;;;;3.03;2.10;;;25.50;56.40;;;;;;5031673;28;19905;-78
2023/06/23 09:25:54;;;;;;;3.05;2.20;;;25.60;55.40;;;;;;5031788;28;20100;-78
2023/06/23 09:28:22;;;;;;;1.80;1.70;;;25.80;71.50;;;;;;5031741;28;20392;-77
2023/06/23 09:30:48;;;;;;;3.70;2.00;;;25.70;55.10;;;;;;5031543;28;20022;-77
2023/06/23 09:33:16;;;;;;;2.30;2.10;;;25.90;55.20;;;;;;5031925;28;20033;-77
2023/06/23 09:36:04;;;;;;;3.10;1.92;;;25.90;55.30;;;;;;5031807;28;20124;-77
2023/06/23 09:38:35;;;;;;;2.65;2.30;;;26.00;54.40;;;;;;5031700;28;20014;-77
2023/06/23 09:41:12;;;;;;;2.13;1.92;;;26.00;55.00;;;;;;5031416;28;20396;-77
2023/06/23 09:43:50;;;;;;;2.28;1.95;;;26.10;55.00;;;;;;5031542;28;20381;-77
2023/06/23 09:46:17;;;;;;;2.05;1.77;;;26.20;55.40;;;;;;5031372;28;20041;-77
2023/06/23 09:48:49;;;;;;;1.73;1.58;;;26.20;55.40;;;;;;5031184;28;20101;-77
2023/06/23 09:51:15;;;;;;;1.80;1.67;;;26.30;56.00;;;;;;5031501;28;20080;-77
2023/06/23 09:53:42;;;;;;;1.60;1.50;;;26.30;55.90;;;;;;5031478;28;20471;-77
2023/06/23 09:56:19;;;;;;;1.77;1.67;;;26.40;55.40;;;;;;5031194;28;20044;-77
2023/06/23 09:58:47;;;;;;;2.13;1.90;;;26.50;55.10;;;;;;5031189;28;20079;-76
2023/06/23 10:01:15;;;;;;;1.80;1.70;;;26.70;71.70;;;;;;5034742;28;20105;-77
2023/06/23 10:03:53;;;;;;;2.05;1.95;;;26.60;55.30;;;;;;5034908;28;20072;-77
2023/06/23 10:06:30;;;;;;;1.98;1.77;;;26.70;55.40;;;;;;5035031;28;20033;-77
2023/06/23 10:08:57;;;;;;;2.00;1.80;;;26.70;55.40;;;;;;5035122;28;20018;-75
2023/06/23 10:11:35;;;;;;;1.77;1.67;;;26.80;55.20;;;;;;5034854;28;20033;-75
2023/06/23 10:14:06;;;;;;;1.67;1.58;;;26.90;55.00;;;;;;5034899;28;20033;-75
2023/06/23 10:16:34;;;;;;;1.80;1.70;;;26.90;54.90;;;;;;5034714;28;20022;-74
2023/06/23 10:19:00;;;;;;;1.50;1.40;;;27.00;55.00;;;;;;5034710;28;20037;-74
2023/06/23 10:21:26;;;;;;;1.90;1.80;;;27.10;55.10;;;;;;5034668;28;20021;-76
2023/06/23 10:23:59;;;;;;;1.60;1.50;;;27.10;55.00;;;;;;5034535;28;20505;-73
2023/06/23 10:26:25;;;;;;;1.63;1.52;;;27.20;54.90;;;;;;5034441;28;20087;-75
2023/06/23 10:28:54;;;;;;;1.73;1.63;;;27.30;55.00;;;;;;5034534;28;20104;-83
2023/06/23 10:31:19;;;;;;;1.75;1.50;;;27.30;54.90;;;;;;5035306;28;20076;-86
2023/06/23 10:33:47;;;;;;;1.70;1.55;;;27.40;54.90;;;;;;5035757;28;20061;-91
2023/06/23 10:36:20;;;;;;;1.60;1.50;;;27.40;54.70;;;;;;5035518;28;20030;-90
2023/06/23 10:38:49;;;;;;;1.55;1.45;;;27.50;54.60;;;;;;5036052;28;20030;-93
2023/06/23 10:41:15;;;;;;;2.10;1.70;;;27.60;54.50;;;;;;5035896;28;20104;-88
2023/06/23 10:43:47;;;;;;;1.80;1.70;;;27.70;54.50;;;;;;5017395;28;20056;-90
2023/06/23 10:46:13;;;;;;;1.40;1.30;;;27.70;54.30;;;;;;5036426;28;20021;-87
2023/06/23 10:48:40;;;;;;;2.33;1.52;;;27.80;54.20;;;;;;5039375;28;20030;-86
2023/06/23 10:51:06;;;;;;;1.65;1.38;;;27.80;53.90;;;;;;5037081;28;20033;-88
2023/06/23 10:53:32;;;;;;;1.40;1.30;;;27.90;54.00;;;;;;5034473;28;20041;-88
2023/06/23 10:55:59;;;;;;;3.10;1.70;;;28.00;54.00;;;;;;5034208;28;20021;-88
2023/06/23 10:58:26;;;;;;;1.55;1.45;;;28.00;53.60;;;;;;5016366;28;20251;-87
2023/06/23 11:00:54;;;;;;;1.73;1.20;;;28.10;53.90;;;;;;5016179;28;20049;-87
2023/06/23 11:03:36;;;;;;;1.50;1.40;;;28.20;53.90;;;;;;5033848;28;20046;-87
2023/06/23 11:06:10;;;;;;;1.58;1.48;;;28.20;53.60;;;;;;5033959;28;20029;-88
2023/06/23 11:08:38;;;;;;;2.67;1.63;;;28.30;53.90;;;;;;5034140;28;20539;-87
2023/06/23 11:11:07;;;;;;;1.50;1.40;;;28.40;53.90;;;;;;5033287;28;20026;-87
2023/06/23 11:13:42;;;;;;;1.85;1.23;;;28.40;53.70;;;;;;5034011;28;20033;-86
2023/06/23 11:16:34;;;;;;;2.10;1.40;;;28.40;53.60;;;;;;5033904;28;20018;-88
2023/06/23 11:19:02;;;;;;;1.60;1.50;;;28.50;53.50;;;;;;5026413;28;20033;-87
2023/06/23 11:21:28;;;;;;;1.88;1.20;;;;;;;;;;5033766;28;20040;-85
2023/06/23 11:24:29;;;;;;;1.73;1.25;;;28.70;53.00;;;;;;5033837;28;20407;-88
2023/06/23 11:27:02;;;;;;;2.20;1.40;;;28.70;53.70;;;;;;5015969;28;20076;-90
2023/06/23 11:29:28;;;;;;;1.40;1.30;;;28.70;53.50;;;;;;5033957;28;20029;-88
2023/06/23 11:32:12;;;;;;;2.15;1.60;;;28.70;53.70;;;;;;5033697;28;20025;-89
2023/06/23 11:35:01;;;;;;;1.25;1.15;;;28.80;53.50;;;;;;5033515;28;20045;-89
2023/06/23 11:37:31;;;;;;;1.30;1.20;;;28.80;53.20;;;;;;5033931;28;20025;-89
2023/06/23 11:39:57;;;;;;;1.40;1.30;;;28.90;53.60;;;;;;5033428;28;20033;-90
2023/06/23 11:42:24;;;;;;;1.50;1.40;;;29.00;53.80;;;;;;5031452;28;20036;-89
2023/06/23 11:44:50;;;;;;;1.73;1.20;;;29.10;53.40;;;;;;5013933;28;20507;-89
2023/06/23 11:47:16;;;;;;;1.55;1.45;;;29.10;53.30;;;;;;5032446;28;20116;-90
2023/06/23 11:49:43;;;;;;;1.30;1.20;;;29.20;53.20;;;;;;5032234;28;20039;-90
2023/06/23 11:52:09;;;;;;;1.48;1.38;;;29.20;53.30;;;;;;5032853;28;20025;-88
2023/06/23 11:54:35;;;;;;;1.50;1.40;;;29.30;53.00;;;;;;5033182;28;20040;-84
2023/06/23 11:57:06;;;;;;;1.40;1.30;;;29.30;52.70;;;;;;5033546;28;20025;-89
2023/06/23 11:59:36;;;;;;;1.35;1.25;;;29.30;52.60;;;;;;5033161;28;20141;-89
2023/06/23 12:02:02;;;;;;;;;;;29.40;52.70;;;;;;5033149;28;20033;-90
2023/06/23 12:04:29;;;;;;;1.45;1.35;;;29.50;52.00;;;;;;5033238;28;19959;-88
2023/06/23 12:06:56;;;;;;;1.40;1.30;;;29.60;52.40;;;;;;5033299;28;20369;-89
2023/06/23 12:09:22;;;;;;;1.63;1.05;;;29.60;52.60;;;;;;5033243;28;20480;-90
2023/06/23 12:11:48;;;;;;;1.50;1.40;;;29.60;52.40;;;;;;5033118;28;20083;-88
2023/06/23 12:14:14;;;;;;;1.48;1.38;;;29.70;52.10;;;;;;5032968;28;20087;-89
2023/06/23 12:16:39;;;;;;;1.30;1.23;;;30.00;67.20;;;;;;5033226;28;20087;-89
2023/06/23 12:19:06;;;;;;;1.77;1.67;;;29.70;52.20;;;;;;5032478;28;20561;-76
2023/06/23 12:21:34;;;;;;;1.40;1.30;;;29.80;52.30;;;;;;5031784;28;20040;-76
2023/06/23 12:24:19;;;;;;;1.75;1.20;;;29.90;52.10;;;;;;5031033;28;20623;-76
2023/06/23 12:26:45;;;;;;;2.70;1.48;;;29.80;66.60;;;;;;5032211;28;20340;-76
2023/06/23 12:29:12;;;;;;;1.40;1.30;;;30.00;52.00;;;;;;5032163;28;20083;-77
2023/06/23 12:31:39;;;;;;;1.35;1.25;;;30.00;51.70;;;;;;5032344;28;20081;-77
2023/06/23 12:34:09;;;;;;;2.25;1.20;;;30.00;51.50;;;;;;5032391;28;20041;-76
2023/06/23 12:36:39;;;;;;;1.52;1.40;;;30.10;51.80;;;;;;5032130;28;20018;-76
2023/06/23 12:39:07;;;;;;;;;;;30.20;51.70;;;;;;5032336;28;20109;-76
2023/06/23 12:41:33;;;;;;;1.42;1.33;;;30.30;51.70;;;;;;5031972;28;19905;-76
2023/06/23 12:43:59;;;;;;;1.40;1.30;;;30.10;66.00;;;;;;5031866;28;20032;-76
2023/06/23 12:46:27;;;;;;;1.52;1.15;;;30.30;51.50;;;;;;5031915;28;20030;-76
2023/06/23 12:48:54;;;;;;;1.20;1.10;;;30.30;51.40;;;;;;5031874;28;20017;-77
2023/06/23 12:51:37;;;;;;;1.83;1.73;;;30.40;51.50;;;;;;5031768;28;20022;-76
2023/06/23 12:54:03;;;;;;;1.70;1.60;;;30.90;66.00;;;;;;5031710;28;20129;-76
2023/06/23 12:56:29;;;;;;;1.50;1.40;;;30.50;51.10;;;;;;5031795;28;20018;-77